sensor_id;sensor_type;location;lat;lon;timestamp;P1;durP1;ratioP1;P2;durP2;ratioP2
61531;SDS011;47397;48.194;11.632;2024-02-14T00:00:31;7.07;;;3.90;;
61531;SDS011;47397;48.194;11.632;2024-02-14T00:01:31;7.07;;;4.18;;
61531;SDS011;47397;48.194;11.632;2024-02-14T00:02:32;5.45;;;4.28;;
61531;SDS011;47397;48.194;11.632;2024-02-14T00:03:32;8.38;;;4.25;;
61531;SDS011;47397;48.194;11.632;2024-02-14T00:04:32;7.93;;;4.38;;
61531;SDS011;47397;48.194;11.632;2024-02-14T00:05:33;6.72;;;4.00;;
61531;SDS011;47397;48.194;11.632;2024-02-14T00:06:34;7.20;;;4.10;;
61531;SDS011;47397;48.194;11.632;2024-02-14T00:07:35;6.07;;;4.03;;
61531;SDS011;47397;48.194;11.632;2024-02-14T00:08:35;5.57;;;4.13;;
61531;SDS011;47397;48.194;11.632;2024-02-14T00:09:36;6.40;;;3.88;;
61531;SDS011;47397;48.194;11.632;2024-02-14T00:10:37;5.18;;;3.50;;
61531;SDS011;47397;48.194;11.632;2024-02-14T00:11:38;6.15;;;3.72;;
61531;SDS011;47397;48.194;11.632;2024-02-14T00:12:38;5.13;;;3.45;;
61531;SDS011;47397;48.194;11.632;2024-02-14T00:13:38;7.75;;;4.25;;
61531;SDS011;47397;48.194;11.632;2024-02-14T00:14:38;7.47;;;3.90;;
61531;SDS011;47397;48.194;11.632;2024-02-14T00:15:39;7.38;;;3.70;;
61531;SDS011;47397;48.194;11.632;2024-02-14T00:16:40;5.97;;;4.00;;
61531;SDS011;47397;48.194;11.632;2024-02-14T00:17:40;6.85;;;4.00;;
61531;SDS011;47397;48.194;11.632;2024-02-14T00:18:40;5.82;;;3.85;;
61531;SDS011;47397;48.194;11.632;2024-02-14T00:19:40;7.70;;;4.30;;
61531;SDS011;47397;48.194;11.632;2024-02-14T00:20:41;6.15;;;3.55;;
61531;SDS011;47397;48.194;11.632;2024-02-14T00:21:41;5.72;;;3.83;;
61531;SDS011;47397;48.194;11.632;2024-02-14T00:22:41;5.03;;;3.53;;
61531;SDS011;47397;48.194;11.632;2024-02-14T00:23:42;9.13;;;4.20;;
61531;SDS011;47397;48.194;11.632;2024-02-14T00:24:42;6.90;;;3.90;;
61531;SDS011;47397;48.194;11.632;2024-02-14T00:25:44;5.50;;;3.58;;
61531;SDS011;47397;48.194;11.632;2024-02-14T00:26:44;7.25;;;3.70;;
61531;SDS011;47397;48.194;11.632;2024-02-14T00:27:45;6.70;;;3.92;;
61531;SDS011;47397;48.194;11.632;2024-02-14T00:28:45;6.10;;;3.50;;
61531;SDS011;47397;48.194;11.632;2024-02-14T00:29:46;7.43;;;3.75;;
61531;SDS011;47397;48.194;11.632;2024-02-14T00:30:46;5.15;;;3.67;;
61531;SDS011;47397;48.194;11.632;2024-02-14T00:31:46;6.15;;;3.67;;
61531;SDS011;47397;48.194;11.632;2024-02-14T00:32:47;6.60;;;3.58;;
61531;SDS011;47397;48.194;11.632;2024-02-14T00:33:47;8.57;;;3.95;;
61531;SDS011;47397;48.194;11.632;2024-02-14T00:34:47;7.57;;;4.10;;
61531;SDS011;47397;48.194;11.632;2024-02-14T00:35:48;4.93;;;3.85;;
61531;SDS011;47397;48.194;11.632;2024-02-14T00:36:48;6.15;;;3.72;;
61531;SDS011;47397;48.194;11.632;2024-02-14T00:37:48;5.65;;;3.88;;
61531;SDS011;47397;48.194;11.632;2024-02-14T00:38:48;7.10;;;4.28;;
61531;SDS011;47397;48.194;11.632;2024-02-14T00:39:49;5.45;;;3.58;;
61531;SDS011;47397;48.194;11.632;2024-02-14T00:40:50;7.10;;;3.78;;
61531;SDS011;47397;48.194;11.632;2024-02-14T00:41:51;6.28;;;3.83;;
61531;SDS011;47397;48.194;11.632;2024-02-14T00:42:51;5.03;;;3.95;;
61531;SDS011;47397;48.194;11.632;2024-02-14T00:43:51;8.23;;;3.78;;
61531;SDS011;47397;48.194;11.632;2024-02-14T00:44:52;6.13;;;3.80;;
61531;SDS011;47397;48.194;11.632;2024-02-14T00:45:52;6.82;;;3.80;;
61531;SDS011;47397;48.194;11.632;2024-02-14T00:46:55;7.43;;;3.60;;
61531;SDS011;47397;48.194;11.632;2024-02-14T00:47:57;7.57;;;4.13;;
61531;SDS011;47397;48.194;11.632;2024-02-14T00:48:57;4.95;;;3.75;;
61531;SDS011;47397;48.194;11.632;2024-02-14T00:49:57;6.45;;;3.78;;
61531;SDS011;47397;48.194;11.632;2024-02-14T00:50:58;5.35;;;3.50;;
61531;SDS011;47397;48.194;11.632;2024-02-14T00:51:58;4.43;;;3.42;;
61531;SDS011;47397;48.194;11.632;2024-02-14T00:52:58;6.60;;;3.75;;
61531;SDS011;47397;48.194;11.632;2024-02-14T00:53:58;4.93;;;3.58;;
61531;SDS011;47397;48.194;11.632;2024-02-14T00:54:59;5.53;;;3.63;;
61531;SDS011;47397;48.194;11.632;2024-02-14T00:56:00;7.63;;;3.97;;
61531;SDS011;47397;48.194;11.632;2024-02-14T00:57:01;5.25;;;3.47;;
61531;SDS011;47397;48.194;11.632;2024-02-14T00:58:01;5.75;;;3.20;;
61531;SDS011;47397;48.194;11.632;2024-02-14T00:59:01;5.13;;;3.47;;
61531;SDS011;47397;48.194;11.632;2024-02-14T01:00:02;5.90;;;3.65;;
61531;SDS011;47397;48.194;11.632;2024-02-14T01:01:03;5.97;;;3.47;;
61531;SDS011;47397;48.194;11.632;2024-02-14T01:02:03;5.20;;;3.10;;
61531;SDS011;47397;48.194;11.632;2024-02-14T01:03:06;5.30;;;3.38;;
61531;SDS011;47397;48.194;11.632;2024-02-14T01:04:06;6.00;;;3.67;;
61531;SDS011;47397;48.194;11.632;2024-02-14T01:05:07;7.00;;;4.63;;
61531;SDS011;47397;48.194;11.632;2024-02-14T01:06:07;6.03;;;3.17;;
61531;SDS011;47397;48.194;11.632;2024-02-14T01:07:07;6.13;;;3.60;;
61531;SDS011;47397;48.194;11.632;2024-02-14T01:08:08;5.80;;;3.72;;
61531;SDS011;47397;48.194;11.632;2024-02-14T01:09:08;5.15;;;3.30;;
61531;SDS011;47397;48.194;11.632;2024-02-14T01:10:08;5.45;;;3.30;;
61531;SDS011;47397;48.194;11.632;2024-02-14T01:11:10;5.70;;;3.20;;
61531;SDS011;47397;48.194;11.632;2024-02-14T01:12:10;6.72;;;3.35;;
61531;SDS011;47397;48.194;11.632;2024-02-14T01:13:11;3.92;;;3.03;;
61531;SDS011;47397;48.194;11.632;2024-02-14T01:14:11;5.35;;;3.40;;
61531;SDS011;47397;48.194;11.632;2024-02-14T01:15:11;6.25;;;3.30;;
61531;SDS011;47397;48.194;11.632;2024-02-14T01:16:12;4.75;;;3.35;;
61531;SDS011;47397;48.194;11.632;2024-02-14T01:17:12;4.90;;;3.50;;
61531;SDS011;47397;48.194;11.632;2024-02-14T01:18:12;5.47;;;3.10;;
61531;SDS011;47397;48.194;11.632;2024-02-14T01:19:13;5.40;;;3.10;;
61531;SDS011;47397;48.194;11.632;2024-02-14T01:20:13;4.10;;;2.85;;
61531;SDS011;47397;48.194;11.632;2024-02-14T01:21:14;4.63;;;3.03;;
61531;SDS011;47397;48.194;11.632;2024-02-14T01:22:14;7.13;;;2.90;;
61531;SDS011;47397;48.194;11.632;2024-02-14T01:23:14;7.40;;;3.63;;
61531;SDS011;47397;48.194;11.632;2024-02-14T01:24:15;4.40;;;3.08;;
61531;SDS011;47397;48.194;11.632;2024-02-14T01:25:15;4.63;;;2.97;;
61531;SDS011;47397;48.194;11.632;2024-02-14T01:26:17;6.40;;;2.97;;
61531;SDS011;47397;48.194;11.632;2024-02-14T01:27:17;5.78;;;2.70;;
61531;SDS011;47397;48.194;11.632;2024-02-14T01:28:18;4.38;;;3.00;;
61531;SDS011;47397;48.194;11.632;2024-02-14T01:29:18;4.88;;;2.88;;
61531;SDS011;47397;48.194;11.632;2024-02-14T01:30:18;4.75;;;2.97;;
61531;SDS011;47397;48.194;11.632;2024-02-14T01:31:18;4.57;;;3.38;;
61531;SDS011;47397;48.194;11.632;2024-02-14T01:32:19;5.20;;;2.60;;
61531;SDS011;47397;48.194;11.632;2024-02-14T01:33:19;4.90;;;2.53;;
61531;SDS011;47397;48.194;11.632;2024-02-14T01:34:20;3.88;;;2.55;;
61531;SDS011;47397;48.194;11.632;2024-02-14T01:35:20;4.20;;;2.90;;
61531;SDS011;47397;48.194;11.632;2024-02-14T01:36:21;4.03;;;2.70;;
61531;SDS011;47397;48.194;11.632;2024-02-14T01:37:21;4.65;;;2.75;;
61531;SDS011;47397;48.194;11.632;2024-02-14T01:38:21;5.03;;;2.90;;
61531;SDS011;47397;48.194;11.632;2024-02-14T01:39:21;7.03;;;2.92;;
61531;SDS011;47397;48.194;11.632;2024-02-14T01:40:22;5.57;;;3.20;;
61531;SDS011;47397;48.194;11.632;2024-02-14T01:41:23;3.60;;;2.80;;
61531;SDS011;47397;48.194;11.632;2024-02-14T01:42:24;4.82;;;2.85;;
61531;SDS011;47397;48.194;11.632;2024-02-14T01:43:24;3.72;;;2.80;;
61531;SDS011;47397;48.194;11.632;2024-02-14T01:44:24;5.60;;;2.92;;
61531;SDS011;47397;48.194;11.632;2024-02-14T01:45:25;3.50;;;2.30;;
61531;SDS011;47397;48.194;11.632;2024-02-14T01:46:25;4.72;;;2.45;;
61531;SDS011;47397;48.194;11.632;2024-02-14T01:47:25;5.15;;;2.53;;
61531;SDS011;47397;48.194;11.632;2024-02-14T01:48:26;3.80;;;2.17;;
61531;SDS011;47397;48.194;11.632;2024-02-14T01:49:26;6.22;;;2.70;;
61531;SDS011;47397;48.194;11.632;2024-02-14T01:50:27;5.15;;;2.85;;
61531;SDS011;47397;48.194;11.632;2024-02-14T01:51:28;4.30;;;2.60;;
61531;SDS011;47397;48.194;11.632;2024-02-14T01:52:29;3.22;;;2.35;;
61531;SDS011;47397;48.194;11.632;2024-02-14T01:53:30;5.22;;;2.83;;
61531;SDS011;47397;48.194;11.632;2024-02-14T01:54:31;4.35;;;2.65;;
61531;SDS011;47397;48.194;11.632;2024-02-14T01:55:33;5.28;;;2.67;;
61531;SDS011;47397;48.194;11.632;2024-02-14T01:56:35;4.63;;;2.65;;
61531;SDS011;47397;48.194;11.632;2024-02-14T01:57:35;3.40;;;2.40;;
61531;SDS011;47397;48.194;11.632;2024-02-14T01:58:36;3.75;;;2.50;;
61531;SDS011;47397;48.194;11.632;2024-02-14T01:59:37;6.00;;;2.67;;
61531;SDS011;47397;48.194;11.632;2024-02-14T02:00:37;3.83;;;2.30;;
61531;SDS011;47397;48.194;11.632;2024-02-14T02:01:38;5.00;;;2.50;;
61531;SDS011;47397;48.194;11.632;2024-02-14T02:02:39;4.13;;;2.53;;
61531;SDS011;47397;48.194;11.632;2024-02-14T02:03:39;4.18;;;2.53;;
61531;SDS011;47397;48.194;11.632;2024-02-14T02:04:39;6.35;;;2.65;;
61531;SDS011;47397;48.194;11.632;2024-02-14T02:05:40;4.75;;;2.28;;
61531;SDS011;47397;48.194;11.632;2024-02-14T02:06:40;3.35;;;1.98;;
61531;SDS011;47397;48.194;11.632;2024-02-14T02:07:41;4.25;;;2.65;;
61531;SDS011;47397;48.194;11.632;2024-02-14T02:08:42;4.00;;;2.53;;
61531;SDS011;47397;48.194;11.632;2024-02-14T02:09:43;3.95;;;2.00;;
61531;SDS011;47397;48.194;11.632;2024-02-14T02:10:43;4.22;;;2.55;;
61531;SDS011;47397;48.194;11.632;2024-02-14T02:11:46;3.50;;;2.33;;
61531;SDS011;47397;48.194;11.632;2024-02-14T02:12:48;5.10;;;2.47;;
61531;SDS011;47397;48.194;11.632;2024-02-14T02:13:48;4.10;;;2.53;;
61531;SDS011;47397;48.194;11.632;2024-02-14T02:14:48;4.60;;;2.40;;
61531;SDS011;47397;48.194;11.632;2024-02-14T02:15:49;4.40;;;3.00;;
61531;SDS011;47397;48.194;11.632;2024-02-14T02:16:49;3.35;;;2.17;;
61531;SDS011;47397;48.194;11.632;2024-02-14T02:17:49;4.32;;;2.70;;
61531;SDS011;47397;48.194;11.632;2024-02-14T02:18:50;4.28;;;2.50;;
61531;SDS011;47397;48.194;11.632;2024-02-14T02:19:52;3.63;;;2.42;;
61531;SDS011;47397;48.194;11.632;2024-02-14T02:20:53;4.88;;;2.25;;
61531;SDS011;47397;48.194;11.632;2024-02-14T02:21:53;6.15;;;2.67;;
61531;SDS011;47397;48.194;11.632;2024-02-14T02:22:55;4.15;;;2.40;;
61531;SDS011;47397;48.194;11.632;2024-02-14T02:23:55;4.30;;;2.50;;
61531;SDS011;47397;48.194;11.632;2024-02-14T02:24:56;4.22;;;2.47;;
61531;SDS011;47397;48.194;11.632;2024-02-14T02:25:56;7.13;;;2.63;;
61531;SDS011;47397;48.194;11.632;2024-02-14T02:26:56;2.80;;;1.85;;
61531;SDS011;47397;48.194;11.632;2024-02-14T02:27:56;4.50;;;2.50;;
61531;SDS011;47397;48.194;11.632;2024-02-14T02:28:57;4.25;;;2.10;;
61531;SDS011;47397;48.194;11.632;2024-02-14T02:29:57;3.55;;;2.35;;
61531;SDS011;47397;48.194;11.632;2024-02-14T02:30:57;4.00;;;2.45;;
61531;SDS011;47397;48.194;11.632;2024-02-14T02:31:58;4.50;;;2.30;;
61531;SDS011;47397;48.194;11.632;2024-02-14T02:32:58;4.60;;;2.40;;
61531;SDS011;47397;48.194;11.632;2024-02-14T02:33:58;3.53;;;2.10;;
61531;SDS011;47397;48.194;11.632;2024-02-14T02:34:59;4.07;;;2.40;;
61531;SDS011;47397;48.194;11.632;2024-02-14T02:35:59;4.75;;;2.40;;
61531;SDS011;47397;48.194;11.632;2024-02-14T02:36:59;4.80;;;2.60;;
61531;SDS011;47397;48.194;11.632;2024-02-14T02:38:01;4.38;;;2.70;;
61531;SDS011;47397;48.194;11.632;2024-02-14T02:39:01;4.10;;;2.83;;
61531;SDS011;47397;48.194;11.632;2024-02-14T02:40:02;4.90;;;2.50;;
61531;SDS011;47397;48.194;11.632;2024-02-14T02:41:02;4.10;;;2.20;;
61531;SDS011;47397;48.194;11.632;2024-02-14T02:42:03;4.40;;;2.17;;
61531;SDS011;47397;48.194;11.632;2024-02-14T02:43:04;4.65;;;2.08;;
61531;SDS011;47397;48.194;11.632;2024-02-14T02:44:04;3.63;;;2.13;;
61531;SDS011;47397;48.194;11.632;2024-02-14T02:45:05;3.30;;;1.80;;
61531;SDS011;47397;48.194;11.632;2024-02-14T02:46:05;4.30;;;2.20;;
61531;SDS011;47397;48.194;11.632;2024-02-14T02:47:05;3.05;;;2.13;;
61531;SDS011;47397;48.194;11.632;2024-02-14T02:48:06;4.25;;;2.10;;
61531;SDS011;47397;48.194;11.632;2024-02-14T02:49:07;4.03;;;2.40;;
61531;SDS011;47397;48.194;11.632;2024-02-14T02:50:08;6.35;;;2.67;;
61531;SDS011;47397;48.194;11.632;2024-02-14T02:51:08;3.40;;;2.08;;
61531;SDS011;47397;48.194;11.632;2024-02-14T02:52:09;3.13;;;2.10;;
61531;SDS011;47397;48.194;11.632;2024-02-14T02:53:10;4.65;;;2.65;;
61531;SDS011;47397;48.194;11.632;2024-02-14T02:54:11;5.07;;;2.53;;
61531;SDS011;47397;48.194;11.632;2024-02-14T02:55:11;3.63;;;2.30;;
61531;SDS011;47397;48.194;11.632;2024-02-14T02:56:13;4.57;;;2.20;;
61531;SDS011;47397;48.194;11.632;2024-02-14T02:57:13;3.10;;;2.40;;
61531;SDS011;47397;48.194;11.632;2024-02-14T02:58:13;3.83;;;2.35;;
61531;SDS011;47397;48.194;11.632;2024-02-14T02:59:14;3.10;;;2.00;;
61531;SDS011;47397;48.194;11.632;2024-02-14T03:00:14;2.65;;;1.70;;
61531;SDS011;47397;48.194;11.632;2024-02-14T03:01:15;4.18;;;2.08;;
61531;SDS011;47397;48.194;11.632;2024-02-14T03:02:15;4.82;;;2.10;;
61531;SDS011;47397;48.194;11.632;2024-02-14T03:03:16;3.03;;;1.90;;
61531;SDS011;47397;48.194;11.632;2024-02-14T03:04:16;4.47;;;2.00;;
61531;SDS011;47397;48.194;11.632;2024-02-14T03:05:16;3.33;;;1.88;;
61531;SDS011;47397;48.194;11.632;2024-02-14T03:06:17;3.13;;;2.00;;
61531;SDS011;47397;48.194;11.632;2024-02-14T03:07:17;4.18;;;2.20;;
61531;SDS011;47397;48.194;11.632;2024-02-14T03:08:19;4.32;;;1.80;;
61531;SDS011;47397;48.194;11.632;2024-02-14T03:09:19;3.67;;;1.48;;
61531;SDS011;47397;48.194;11.632;2024-02-14T03:10:19;3.92;;;1.67;;
61531;SDS011;47397;48.194;11.632;2024-02-14T03:11:20;3.63;;;1.92;;
61531;SDS011;47397;48.194;11.632;2024-02-14T03:12:20;2.80;;;1.60;;
61531;SDS011;47397;48.194;11.632;2024-02-14T03:13:20;3.95;;;1.80;;
61531;SDS011;47397;48.194;11.632;2024-02-14T03:14:20;3.30;;;1.70;;
61531;SDS011;47397;48.194;11.632;2024-02-14T03:15:21;4.82;;;2.08;;
61531;SDS011;47397;48.194;11.632;2024-02-14T03:16:21;3.10;;;1.50;;
61531;SDS011;47397;48.194;11.632;2024-02-14T03:17:22;3.53;;;1.67;;
61531;SDS011;47397;48.194;11.632;2024-02-14T03:18:22;3.47;;;1.90;;
61531;SDS011;47397;48.194;11.632;2024-02-14T03:19:22;3.28;;;1.85;;
61531;SDS011;47397;48.194;11.632;2024-02-14T03:20:22;4.20;;;1.80;;
61531;SDS011;47397;48.194;11.632;2024-02-14T03:21:23;3.35;;;1.85;;
61531;SDS011;47397;48.194;11.632;2024-02-14T03:22:23;3.75;;;1.83;;
61531;SDS011;47397;48.194;11.632;2024-02-14T03:23:25;3.00;;;1.63;;
61531;SDS011;47397;48.194;11.632;2024-02-14T03:24:25;3.10;;;1.60;;
61531;SDS011;47397;48.194;11.632;2024-02-14T03:25:25;2.75;;;1.67;;
61531;SDS011;47397;48.194;11.632;2024-02-14T03:26:25;2.90;;;1.73;;
61531;SDS011;47397;48.194;11.632;2024-02-14T03:27:26;3.10;;;1.65;;
61531;SDS011;47397;48.194;11.632;2024-02-14T03:28:26;2.58;;;1.60;;
61531;SDS011;47397;48.194;11.632;2024-02-14T03:29:26;3.72;;;1.40;;
61531;SDS011;47397;48.194;11.632;2024-02-14T03:30:27;3.28;;;1.73;;
61531;SDS011;47397;48.194;11.632;2024-02-14T03:31:27;2.28;;;1.48;;
61531;SDS011;47397;48.194;11.632;2024-02-14T03:32:27;2.88;;;1.60;;
61531;SDS011;47397;48.194;11.632;2024-02-14T03:33:28;2.58;;;1.50;;
61531;SDS011;47397;48.194;11.632;2024-02-14T03:34:28;2.72;;;1.30;;
61531;SDS011;47397;48.194;11.632;2024-02-14T03:35:28;3.30;;;1.63;;
61531;SDS011;47397;48.194;11.632;2024-02-14T03:36:28;2.88;;;1.70;;
61531;SDS011;47397;48.194;11.632;2024-02-14T03:37:29;2.40;;;1.50;;
61531;SDS011;47397;48.194;11.632;2024-02-14T03:38:30;2.97;;;1.40;;
61531;SDS011;47397;48.194;11.632;2024-02-14T03:39:31;3.30;;;1.45;;
61531;SDS011;47397;48.194;11.632;2024-02-14T03:40:31;2.67;;;1.48;;
61531;SDS011;47397;48.194;11.632;2024-02-14T03:41:31;2.25;;;1.40;;
61531;SDS011;47397;48.194;11.632;2024-02-14T03:42:32;3.33;;;1.45;;
61531;SDS011;47397;48.194;11.632;2024-02-14T03:43:33;3.50;;;1.55;;
61531;SDS011;47397;48.194;11.632;2024-02-14T03:44:33;3.38;;;1.40;;
61531;SDS011;47397;48.194;11.632;2024-02-14T03:45:34;3.22;;;1.45;;
61531;SDS011;47397;48.194;11.632;2024-02-14T03:46:34;2.22;;;1.30;;
61531;SDS011;47397;48.194;11.632;2024-02-14T03:47:35;2.78;;;1.50;;
61531;SDS011;47397;48.194;11.632;2024-02-14T03:48:35;2.28;;;1.42;;
61531;SDS011;47397;48.194;11.632;2024-02-14T03:49:35;2.08;;;1.23;;
61531;SDS011;47397;48.194;11.632;2024-02-14T03:50:36;2.47;;;1.25;;
61531;SDS011;47397;48.194;11.632;2024-02-14T03:51:36;2.45;;;1.30;;
61531;SDS011;47397;48.194;11.632;2024-02-14T03:52:36;2.30;;;1.58;;
61531;SDS011;47397;48.194;11.632;2024-02-14T03:53:38;2.88;;;1.48;;
61531;SDS011;47397;48.194;11.632;2024-02-14T03:54:38;2.67;;;1.40;;
61531;SDS011;47397;48.194;11.632;2024-02-14T03:55:39;3.03;;;1.67;;
61531;SDS011;47397;48.194;11.632;2024-02-14T03:56:39;2.42;;;1.50;;
61531;SDS011;47397;48.194;11.632;2024-02-14T03:57:39;2.70;;;1.27;;
61531;SDS011;47397;48.194;11.632;2024-02-14T03:58:40;2.47;;;1.23;;
61531;SDS011;47397;48.194;11.632;2024-02-14T03:59:40;3.25;;;1.42;;
61531;SDS011;47397;48.194;11.632;2024-02-14T04:00:40;2.95;;;1.35;;
61531;SDS011;47397;48.194;11.632;2024-02-14T04:01:43;2.35;;;1.20;;
61531;SDS011;47397;48.194;11.632;2024-02-14T04:02:44;2.47;;;1.20;;
61531;SDS011;47397;48.194;11.632;2024-02-14T04:03:45;4.13;;;1.70;;
61531;SDS011;47397;48.194;11.632;2024-02-14T04:04:46;2.35;;;1.17;;
61531;SDS011;47397;48.194;11.632;2024-02-14T04:05:46;2.67;;;1.50;;
61531;SDS011;47397;48.194;11.632;2024-02-14T04:06:46;2.50;;;1.40;;
61531;SDS011;47397;48.194;11.632;2024-02-14T04:07:47;2.10;;;1.30;;
61531;SDS011;47397;48.194;11.632;2024-02-14T04:08:48;4.35;;;1.40;;
61531;SDS011;47397;48.194;11.632;2024-02-14T04:09:49;2.13;;;1.17;;
61531;SDS011;47397;48.194;11.632;2024-02-14T04:10:49;2.35;;;1.33;;
61531;SDS011;47397;48.194;11.632;2024-02-14T04:11:50;3.17;;;1.30;;
61531;SDS011;47397;48.194;11.632;2024-02-14T04:12:50;3.58;;;1.25;;
61531;SDS011;47397;48.194;11.632;2024-02-14T04:13:50;2.28;;;1.15;;
61531;SDS011;47397;48.194;11.632;2024-02-14T04:14:50;3.22;;;1.35;;
61531;SDS011;47397;48.194;11.632;2024-02-14T04:15:51;3.33;;;1.27;;
61531;SDS011;47397;48.194;11.632;2024-02-14T04:16:51;2.90;;;1.30;;
61531;SDS011;47397;48.194;11.632;2024-02-14T04:17:51;2.22;;;1.13;;
61531;SDS011;47397;48.194;11.632;2024-02-14T04:18:52;2.47;;;1.40;;
61531;SDS011;47397;48.194;11.632;2024-02-14T04:19:52;2.63;;;1.35;;
61531;SDS011;47397;48.194;11.632;2024-02-14T04:20:52;2.60;;;1.40;;
61531;SDS011;47397;48.194;11.632;2024-02-14T04:21:53;2.80;;;1.08;;
61531;SDS011;47397;48.194;11.632;2024-02-14T04:22:53;4.03;;;1.50;;
61531;SDS011;47397;48.194;11.632;2024-02-14T04:23:55;3.17;;;1.35;;
61531;SDS011;47397;48.194;11.632;2024-02-14T04:24:56;2.03;;;1.10;;
61531;SDS011;47397;48.194;11.632;2024-02-14T04:25:56;2.30;;;1.27;;
61531;SDS011;47397;48.194;11.632;2024-02-14T04:26:57;3.90;;;1.40;;
61531;SDS011;47397;48.194;11.632;2024-02-14T04:27:57;2.05;;;1.20;;
61531;SDS011;47397;48.194;11.632;2024-02-14T04:28:57;2.67;;;1.15;;
61531;SDS011;47397;48.194;11.632;2024-02-14T04:29:57;2.75;;;1.23;;
61531;SDS011;47397;48.194;11.632;2024-02-14T04:30:59;2.30;;;1.40;;
61531;SDS011;47397;48.194;11.632;2024-02-14T04:32:00;2.40;;;1.13;;
61531;SDS011;47397;48.194;11.632;2024-02-14T04:33:00;1.90;;;1.10;;
61531;SDS011;47397;48.194;11.632;2024-02-14T04:34:00;3.20;;;1.30;;
61531;SDS011;47397;48.194;11.632;2024-02-14T04:35:01;2.80;;;1.10;;
61531;SDS011;47397;48.194;11.632;2024-02-14T04:36:01;3.10;;;1.30;;
61531;SDS011;47397;48.194;11.632;2024-02-14T04:37:02;2.42;;;0.98;;
61531;SDS011;47397;48.194;11.632;2024-02-14T04:38:03;2.95;;;1.40;;
61531;SDS011;47397;48.194;11.632;2024-02-14T04:39:04;2.28;;;1.10;;
61531;SDS011;47397;48.194;11.632;2024-02-14T04:40:06;2.15;;;1.00;;
61531;SDS011;47397;48.194;11.632;2024-02-14T04:41:07;3.28;;;1.10;;
61531;SDS011;47397;48.194;11.632;2024-02-14T04:42:07;2.60;;;1.50;;
61531;SDS011;47397;48.194;11.632;2024-02-14T04:43:07;2.20;;;1.00;;
61531;SDS011;47397;48.194;11.632;2024-02-14T04:44:08;3.22;;;1.13;;
61531;SDS011;47397;48.194;11.632;2024-02-14T04:45:08;1.67;;;1.00;;
61531;SDS011;47397;48.194;11.632;2024-02-14T04:46:09;2.65;;;1.20;;
61531;SDS011;47397;48.194;11.632;2024-02-14T04:47:09;2.03;;;1.00;;
61531;SDS011;47397;48.194;11.632;2024-02-14T04:48:09;2.80;;;1.05;;
61531;SDS011;47397;48.194;11.632;2024-02-14T04:49:10;2.38;;;1.00;;
61531;SDS011;47397;48.194;11.632;2024-02-14T04:50:10;2.60;;;1.00;;
61531;SDS011;47397;48.194;11.632;2024-02-14T04:51:10;2.47;;;1.30;;
61531;SDS011;47397;48.194;11.632;2024-02-14T04:52:10;2.30;;;1.10;;
61531;SDS011;47397;48.194;11.632;2024-02-14T04:53:11;2.40;;;1.10;;
61531;SDS011;47397;48.194;11.632;2024-02-14T04:54:12;1.88;;;1.02;;
61531;SDS011;47397;48.194;11.632;2024-02-14T04:55:13;2.30;;;1.02;;
61531;SDS011;47397;48.194;11.632;2024-02-14T04:56:13;1.88;;;1.05;;
61531;SDS011;47397;48.194;11.632;2024-02-14T04:57:14;2.75;;;1.08;;
61531;SDS011;47397;48.194;11.632;2024-02-14T04:58:14;2.28;;;1.00;;
61531;SDS011;47397;48.194;11.632;2024-02-14T04:59:14;2.22;;;1.30;;
61531;SDS011;47397;48.194;11.632;2024-02-14T05:00:15;2.03;;;1.20;;
61531;SDS011;47397;48.194;11.632;2024-02-14T05:01:16;2.42;;;1.10;;
61531;SDS011;47397;48.194;11.632;2024-02-14T05:02:16;3.00;;;1.20;;
61531;SDS011;47397;48.194;11.632;2024-02-14T05:03:16;2.42;;;1.15;;
61531;SDS011;47397;48.194;11.632;2024-02-14T05:04:16;2.38;;;1.13;;
61531;SDS011;47397;48.194;11.632;2024-02-14T05:05:17;2.90;;;1.10;;
61531;SDS011;47397;48.194;11.632;2024-02-14T05:06:17;3.15;;;1.10;;
61531;SDS011;47397;48.194;11.632;2024-02-14T05:07:17;2.33;;;1.08;;
61531;SDS011;47397;48.194;11.632;2024-02-14T05:08:18;3.28;;;1.13;;
61531;SDS011;47397;48.194;11.632;2024-02-14T05:09:19;1.50;;;1.00;;
61531;SDS011;47397;48.194;11.632;2024-02-14T05:10:20;2.17;;;1.08;;
61531;SDS011;47397;48.194;11.632;2024-02-14T05:11:20;1.60;;;0.90;;
61531;SDS011;47397;48.194;11.632;2024-02-14T05:12:20;2.28;;;1.08;;
61531;SDS011;47397;48.194;11.632;2024-02-14T05:13:21;2.03;;;1.00;;
61531;SDS011;47397;48.194;11.632;2024-02-14T05:14:21;1.90;;;0.90;;
61531;SDS011;47397;48.194;11.632;2024-02-14T05:15:21;2.45;;;1.00;;
61531;SDS011;47397;48.194;11.632;2024-02-14T05:16:22;2.30;;;1.00;;
61531;SDS011;47397;48.194;11.632;2024-02-14T05:17:22;2.05;;;1.15;;
61531;SDS011;47397;48.194;11.632;2024-02-14T05:18:22;2.90;;;1.20;;
61531;SDS011;47397;48.194;11.632;2024-02-14T05:19:23;2.85;;;1.10;;
61531;SDS011;47397;48.194;11.632;2024-02-14T05:20:23;2.17;;;1.13;;
61531;SDS011;47397;48.194;11.632;2024-02-14T05:21:23;1.98;;;1.23;;
61531;SDS011;47397;48.194;11.632;2024-02-14T05:22:23;3.25;;;1.50;;
61531;SDS011;47397;48.194;11.632;2024-02-14T05:23:24;2.50;;;1.00;;
61531;SDS011;47397;48.194;11.632;2024-02-14T05:24:25;3.28;;;1.20;;
61531;SDS011;47397;48.194;11.632;2024-02-14T05:25:26;1.67;;;1.10;;
61531;SDS011;47397;48.194;11.632;2024-02-14T05:26:26;2.13;;;1.10;;
61531;SDS011;47397;48.194;11.632;2024-02-14T05:27:26;3.33;;;1.20;;
61531;SDS011;47397;48.194;11.632;2024-02-14T05:28:27;2.08;;;1.27;;
61531;SDS011;47397;48.194;11.632;2024-02-14T05:29:27;2.30;;;1.10;;
61531;SDS011;47397;48.194;11.632;2024-02-14T05:30:27;2.40;;;1.20;;
61531;SDS011;47397;48.194;11.632;2024-02-14T05:31:42;1.70;;;1.10;;
61531;SDS011;47397;48.194;11.632;2024-02-14T05:32:43;1.60;;;0.90;;
61531;SDS011;47397;48.194;11.632;2024-02-14T05:33:43;3.70;;;1.30;;
61531;SDS011;47397;48.194;11.632;2024-02-14T05:34:43;3.05;;;1.20;;
61531;SDS011;47397;48.194;11.632;2024-02-14T05:35:44;2.38;;;1.20;;
61531;SDS011;47397;48.194;11.632;2024-02-14T05:36:44;2.08;;;1.02;;
61531;SDS011;47397;48.194;11.632;2024-02-14T05:37:44;3.92;;;1.23;;
61531;SDS011;47397;48.194;11.632;2024-02-14T05:38:45;2.80;;;1.20;;
61531;SDS011;47397;48.194;11.632;2024-02-14T05:39:46;2.50;;;1.40;;
61531;SDS011;47397;48.194;11.632;2024-02-14T05:40:47;2.95;;;1.42;;
61531;SDS011;47397;48.194;11.632;2024-02-14T05:41:47;2.25;;;1.10;;
61531;SDS011;47397;48.194;11.632;2024-02-14T05:42:47;2.67;;;1.20;;
61531;SDS011;47397;48.194;11.632;2024-02-14T05:43:48;5.43;;;1.70;;
61531;SDS011;47397;48.194;11.632;2024-02-14T05:44:48;3.22;;;1.20;;
61531;SDS011;47397;48.194;11.632;2024-02-14T05:45:48;1.90;;;0.88;;
61531;SDS011;47397;48.194;11.632;2024-02-14T05:46:49;3.83;;;1.33;;
61531;SDS011;47397;48.194;11.632;2024-02-14T05:47:49;2.00;;;1.27;;
61531;SDS011;47397;48.194;11.632;2024-02-14T05:48:49;3.65;;;1.80;;
61531;SDS011;47397;48.194;11.632;2024-02-14T05:49:50;3.20;;;1.50;;
61531;SDS011;47397;48.194;11.632;2024-02-14T05:50:50;3.63;;;1.90;;
61531;SDS011;47397;48.194;11.632;2024-02-14T05:51:50;3.45;;;1.80;;
61531;SDS011;47397;48.194;11.632;2024-02-14T05:52:50;3.13;;;2.05;;
61531;SDS011;47397;48.194;11.632;2024-02-14T05:53:51;3.65;;;2.03;;
61531;SDS011;47397;48.194;11.632;2024-02-14T05:54:52;3.65;;;2.20;;
61531;SDS011;47397;48.194;11.632;2024-02-14T05:55:53;3.47;;;1.70;;
61531;SDS011;47397;48.194;11.632;2024-02-14T05:56:53;3.65;;;1.80;;
61531;SDS011;47397;48.194;11.632;2024-02-14T05:57:53;4.95;;;1.88;;
61531;SDS011;47397;48.194;11.632;2024-02-14T05:58:54;4.97;;;2.20;;